createdAt,value
2023-05-09T00:02:19.232Z,99309.22
2023-05-09T00:07:21.752Z,99330.91
2023-05-09T00:12:24.423Z,99304.47
2023-05-09T00:17:28.770Z,99291.25
2023-05-09T00:22:31.120Z,99255.41
2023-05-09T00:27:33.400Z,99240.09
2023-05-09T00:32:36.033Z,99216.59
2023-05-09T00:37:38.398Z,99265.28
2023-05-09T00:42:40.917Z,99260.41
2023-05-09T00:47:43.621Z,99205.94
2023-05-09T00:52:45.958Z,99215.38
2023-05-09T00:57:48.296Z,99174.34
2023-05-09T01:02:55.117Z,99186.22
2023-05-09T01:08:35.924Z,99206.00
2023-05-09T01:14:24.608Z,99204.09
2023-05-09T01:19:51.396Z,99216.00
2023-05-09T01:25:15.802Z,99223.44
2023-05-09T01:30:20.177Z,99191.56
2023-05-09T01:35:26.497Z,99210.53
2023-05-09T01:40:33.735Z,99163.19
2023-05-09T01:45:39.183Z,99204.16
2023-05-09T01:50:43.865Z,99178.09
2023-05-09T01:55:47.898Z,99189.97
2023-05-09T02:00:51.469Z,99189.59
2023-05-09T02:05:56.115Z,99111.56
2023-05-09T02:10:58.921Z,99145.19
2023-05-09T02:16:01.906Z,99142.38
2023-05-09T02:21:04.654Z,99141.22
2023-05-09T02:26:07.185Z,99181.34
2023-05-09T02:31:12.584Z,99163.31
2023-05-09T02:36:18.884Z,99134.50
2023-05-09T02:41:21.922Z,99125.41
2023-05-09T02:46:24.493Z,99168.09
2023-05-09T02:51:26.738Z,99161.38
2023-05-09T02:56:28.969Z,99098.53
2023-05-09T03:01:31.357Z,99145.19
2023-05-09T03:06:33.939Z,99136.47
2023-05-09T03:11:36.974Z,99107.22
2023-05-09T03:16:39.538Z,99106.00
2023-05-09T03:21:48.055Z,99145.84
2023-05-09T03:26:50.779Z,99108.81
2023-05-09T03:31:53.140Z,99151.91
2023-05-09T03:36:55.505Z,99090.22
2023-05-09T03:41:58.633Z,99153.75
2023-05-09T03:47:01.211Z,99118.69
2023-05-09T03:52:09.487Z,99117.44
2023-05-09T03:57:12.408Z,99101.28
2023-05-09T04:02:15.626Z,99131.66
2023-05-09T04:07:20.877Z,99106.38
2023-05-09T04:12:23.173Z,99135.56
2023-05-09T04:17:26.251Z,99127.63
2023-05-09T04:22:28.789Z,99117.31
2023-05-09T04:27:31.908Z,99150.50
2023-05-09T04:32:35.938Z,99126.03
2023-05-09T04:37:38.668Z,99148.22
2023-05-09T04:42:42.321Z,99101.63
2023-05-09T04:47:45.052Z,99103.97
2023-05-09T04:52:47.473Z,99105.47
2023-05-09T04:57:50.827Z,99149.94
2023-05-09T05:02:53.161Z,99118.84
2023-05-09T05:07:55.635Z,99109.34
2023-05-09T05:13:02.714Z,99087.69
2023-05-09T05:18:05.202Z,99080.28
2023-05-09T05:23:10.587Z,99106.25
2023-05-09T05:28:13.460Z,99087.06
2023-05-09T05:33:16.664Z,99110.81
2023-05-09T05:38:19.064Z,99098.19
2023-05-09T05:43:25.493Z,99088.00
2023-05-09T05:48:28.191Z,99102.84
2023-05-09T05:53:32.629Z,99131.72
2023-05-09T05:58:35.666Z,99107.28
2023-05-09T06:03:38.812Z,99092.97
2023-05-09T06:08:42.337Z,99124.38
2023-05-09T06:13:45.083Z,99101.19
2023-05-09T06:18:48.457Z,99105.38
2023-05-09T06:24:07.768Z,99117.97
2023-05-09T06:29:14.327Z,99098.53
2023-05-09T06:34:16.717Z,99091.59
2023-05-09T06:39:19.057Z,99097.16
2023-05-09T06:44:21.333Z,99097.44
2023-05-09T06:49:23.619Z,99082.19
2023-05-09T06:54:25.956Z,99097.00
2023-05-09T06:59:28.374Z,99061.13
2023-05-09T07:04:31.984Z,99073.44
2023-05-09T07:09:34.236Z,99051.41
2023-05-09T07:14:36.518Z,99077.47
2023-05-09T07:19:38.729Z,99078.31
2023-05-09T07:24:40.807Z,99043.13
2023-05-09T07:29:42.921Z,99047.56
2023-05-09T07:34:45.506Z,99018.16
2023-05-09T07:39:47.655Z,99066.13
2023-05-09T07:44:50.044Z,99050.31
2023-05-09T07:49:52.332Z,98982.81
2023-05-09T07:54:54.664Z,99004.94
2023-05-09T07:59:57.041Z,99049.63
2023-05-09T08:04:59.146Z,99025.66
2023-05-09T08:10:01.545Z,99005.50
2023-05-09T08:15:05.316Z,99004.44
2023-05-09T08:20:09.122Z,99021.19
2023-05-09T08:25:12.616Z,99016.81
2023-05-09T08:30:15.502Z,99008.47
2023-05-09T08:35:17.948Z,98973.72
2023-05-09T08:40:20.356Z,99007.59
2023-05-09T08:45:29.914Z,98992.56
2023-05-09T08:50:32.332Z,98963.88
2023-05-09T08:55:34.945Z,98979.31
2023-05-09T09:00:41.166Z,98991.81
2023-05-09T09:05:45.120Z,98943.78
2023-05-09T09:10:48.388Z,98967.94
2023-05-09T09:15:53.563Z,98981.84
2023-05-09T09:21:06.903Z,98944.66
2023-05-09T09:26:09.973Z,98966.19
2023-05-09T09:31:33.228Z,98933.88
2023-05-09T09:36:38.400Z,98950.31
2023-05-09T09:41:41.403Z,98927.03
2023-05-09T09:46:56.397Z,98931.41
2023-05-09T09:51:59.669Z,98924.03
2023-05-09T09:57:02.028Z,98948.28
2023-05-09T10:02:09.004Z,98916.09
2023-05-09T10:07:14.597Z,98923.38
2023-05-09T10:12:20.064Z,98902.38
2023-05-09T10:17:23.373Z,98904.94
2023-05-09T10:22:25.900Z,98897.44
2023-05-09T10:27:32.177Z,98903.34
2023-05-09T10:32:45.809Z,98876.88
2023-05-09T10:37:49.090Z,98863.94
2023-05-09T10:42:51.415Z,98875.22
2023-05-09T10:47:56.683Z,98881.09
2023-05-09T10:53:08.013Z,98870.38
2023-05-09T10:58:33.738Z,98829.31
2023-05-09T11:03:59.011Z,98812.06
2023-05-09T11:09:32.705Z,98818.00
2023-05-09T11:14:38.149Z,98819.81
2023-05-09T11:19:46.168Z,98764.19
2023-05-09T11:24:51.602Z,98803.84
2023-05-09T11:29:58.652Z,98783.78
2023-05-09T11:35:17.108Z,98750.97
2023-05-09T11:40:22.059Z,98772.34
2023-05-09T11:45:31.663Z,98752.69
2023-05-09T11:50:33.932Z,98755.28
2023-05-09T11:55:38.458Z,98728.97
2023-05-09T12:00:47.242Z,98718.38
2023-05-09T12:05:49.538Z,98736.25
2023-05-09T12:10:51.911Z,98731.25
2023-05-09T12:16:04.439Z,98716.13
2023-05-09T12:21:07.440Z,98702.25
2023-05-09T12:26:09.934Z,98698.69
2023-05-09T12:31:13.089Z,98684.16
2023-05-09T12:36:16.347Z,98680.09
2023-05-09T12:41:30.860Z,98674.66
2023-05-09T12:46:38.187Z,98663.78
2023-05-09T12:51:50.459Z,98662.88
2023-05-09T12:56:56.792Z,98633.28
2023-05-09T13:02:01.908Z,98627.50
2023-05-09T13:07:12.740Z,98633.56
2023-05-09T13:12:14.923Z,98615.50
2023-05-09T13:17:17.210Z,98584.22
2023-05-09T13:22:19.426Z,98598.81
2023-05-09T13:27:21.652Z,98592.28
2023-05-09T13:32:25.037Z,98583.75
2023-05-09T13:37:28.259Z,98569.22
2023-05-09T13:42:31.124Z,98583.38
2023-05-09T13:47:33.648Z,98606.16
2023-05-09T13:52:35.870Z,98601.78
2023-05-09T13:57:38.080Z,98546.00
2023-05-09T14:02:40.757Z,98526.19
2023-05-09T14:07:43.274Z,98543.13
2023-05-09T14:12:47.279Z,98555.28
2023-05-09T14:17:49.658Z,98553.41
2023-05-09T14:22:51.973Z,98565.22
2023-05-09T14:27:54.508Z,98531.06
2023-05-09T14:32:56.744Z,98526.78
2023-05-09T14:37:58.992Z,98547.34
2023-05-09T14:43:04.608Z,98547.53
2023-05-09T14:48:07.007Z,98535.97
2023-05-09T14:53:11.267Z,98537.19
2023-05-09T14:58:13.856Z,98490.72
2023-05-09T15:03:16.106Z,98479.44
2023-05-09T15:08:18.590Z,98470.03
2023-05-09T15:13:21.114Z,98477.69
2023-05-09T15:18:27.004Z,98484.59
2023-05-09T15:23:29.191Z,98474.59
2023-05-09T15:28:31.423Z,98496.44
2023-05-09T15:33:33.566Z,98449.22
2023-05-09T15:38:35.720Z,98432.28
2023-05-09T15:43:37.949Z,98454.00
2023-05-09T15:48:40.120Z,98459.56
2023-05-09T15:53:42.630Z,98432.47
2023-05-09T15:58:44.907Z,98447.91
2023-05-09T16:03:47.262Z,98436.47
2023-05-09T16:08:49.672Z,98441.13
2023-05-09T16:13:51.944Z,98444.78
2023-05-09T16:18:54.183Z,98414.91
2023-05-09T16:23:58.123Z,98437.31
2023-05-09T16:29:02.808Z,98432.28
2023-05-09T16:34:06.294Z,98420.94
2023-05-09T16:39:08.798Z,98413.75
2023-05-09T16:44:11.238Z,98434.31
2023-05-09T16:49:15.248Z,98373.03
2023-05-09T16:54:17.410Z,98425.56
2023-05-09T16:59:20.319Z,98424.66
2023-05-09T17:04:22.562Z,98410.00
2023-05-09T17:09:24.728Z,98446.06
2023-05-09T17:14:26.955Z,98426.28
2023-05-09T17:19:29.499Z,98466.44
2023-05-09T17:24:32.592Z,98451.63
2023-05-09T17:29:34.672Z,98423.91
2023-05-09T17:34:38.135Z,98419.03
2023-05-09T17:39:42.213Z,98387.06
2023-05-09T17:44:44.617Z,98428.69
2023-05-09T17:49:46.769Z,98439.91
2023-05-09T17:54:48.887Z,98411.38
2023-05-09T17:59:51.819Z,98465.19
2023-05-09T18:04:54.273Z,98437.47
2023-05-09T18:09:57.284Z,98450.81
2023-05-09T18:14:59.470Z,98422.03
2023-05-09T18:20:02.034Z,98431.81
2023-05-09T18:25:04.532Z,98426.22
2023-05-09T18:30:07.681Z,98411.72
2023-05-09T18:35:10.441Z,98417.91
2023-05-09T18:40:15.538Z,98393.44
2023-05-09T18:45:18.227Z,98409.81
2023-05-09T18:50:20.633Z,98425.06
2023-05-09T18:55:23.275Z,98414.53
2023-05-09T19:00:25.382Z,98415.19
2023-05-09T19:05:27.933Z,98424.28
2023-05-09T19:10:30.836Z,98418.63
2023-05-09T19:15:33.363Z,98396.97
2023-05-09T19:20:35.546Z,98428.44
2023-05-09T19:25:37.761Z,98438.59
2023-05-09T19:30:40.254Z,98434.84
2023-05-09T19:35:43.242Z,98440.00
2023-05-09T19:40:45.531Z,98439.47
2023-05-09T19:45:47.672Z,98459.06
2023-05-09T19:50:49.965Z,98440.69
2023-05-09T19:55:52.566Z,98454.81
2023-05-09T20:00:54.775Z,98448.69
2023-05-09T20:05:57.065Z,98449.66
2023-05-09T20:11:00.165Z,98441.53
2023-05-09T20:16:03.687Z,98460.78
2023-05-09T20:21:09.695Z,98462.19
2023-05-09T20:26:12.013Z,98451.84
2023-05-09T20:31:14.241Z,98450.88
2023-05-09T20:36:16.464Z,98465.31
2023-05-09T20:41:18.769Z,98448.91
2023-05-09T20:46:21.112Z,98457.59
2023-05-09T20:51:23.415Z,98474.06
2023-05-09T20:56:29.216Z,98464.50
2023-05-09T21:01:32.552Z,98436.53
2023-05-09T21:06:38.302Z,98484.50
2023-05-09T21:11:40.745Z,98476.44
2023-05-09T21:16:43.951Z,98492.00
2023-05-09T21:21:46.224Z,98470.19
2023-05-09T21:26:48.409Z,98452.06
2023-05-09T21:31:50.618Z,98451.06
2023-05-09T21:36:52.826Z,98495.78
2023-05-09T21:41:55.044Z,98476.53
2023-05-09T21:46:57.415Z,98490.72
2023-05-09T21:51:59.928Z,98517.50
2023-05-09T21:57:02.185Z,98508.81
2023-05-09T22:02:04.583Z,98484.69
2023-05-09T22:07:07.099Z,98516.84
2023-05-09T22:12:09.441Z,98513.03
2023-05-09T22:17:11.674Z,98532.66
2023-05-09T22:22:14.022Z,98547.38
2023-05-09T22:27:16.502Z,98541.63
2023-05-09T22:32:18.758Z,98527.56
2023-05-09T22:37:21.721Z,98554.97
2023-05-09T22:42:23.819Z,98580.47
2023-05-09T22:47:26.053Z,98556.50
2023-05-09T22:52:28.388Z,98570.31
2023-05-09T22:57:31.466Z,98562.22
2023-05-09T23:02:33.746Z,98569.34
2023-05-09T23:07:36.083Z,98602.97
2023-05-09T23:12:38.337Z,98571.66
2023-05-09T23:17:40.635Z,98581.88
2023-05-09T23:22:42.976Z,98586.09
2023-05-09T23:27:46.767Z,98574.00
2023-05-09T23:32:49.117Z,98581.69
2023-05-09T23:37:51.572Z,98570.38
2023-05-09T23:42:53.664Z,98538.97
2023-05-09T23:47:57.112Z,98588.41
2023-05-09T23:52:59.372Z,98560.09
2023-05-09T23:58:02.495Z,98575.66
